Time;durP1;ratioP1;P1;durP2;ratioP2;P2;SDS_P1;SDS_P2;PMS_P1;PMS_P2;Temp;Humidity;BMP_temperature;BMP_pressure;BME280_temperature;BME280_humidity;BME280_pressure;Samples;Min_cycle;Max_cycle;Signal;HPM_P1;HPM_P2
2021/08/11 00:02:05;;;;;;;17.00;10.32;;;13.20;99.90;;;;;;5012032;28;20030;-86
2021/08/11 00:04:30;;;;;;;14.60;11.00;;;13.20;99.90;;;;;;5014488;28;20042;-86
2021/08/11 00:06:56;;;;;;;15.82;12.30;;;13.20;99.90;;;;;;5014284;28;20089;-86
2021/08/11 00:09:21;;;;;;;14.80;12.50;;;13.20;99.90;;;;;;5013632;28;20113;-86
2021/08/11 00:11:47;;;;;;;16.25;13.27;;;13.20;99.90;;;;;;5013737;28;20038;-86
2021/08/11 00:14:13;;;;;;;19.77;13.45;;;13.20;99.90;;;;;;5008949;28;20030;-87
2021/08/11 00:16:38;;;;;;;18.90;15.30;;;13.20;99.90;;;;;;5015107;28;20108;-86
2021/08/11 00:19:04;;;;;;;21.25;16.23;;;13.20;99.90;;;;;;5012689;28;20026;-87
2021/08/11 00:21:29;;;;;;;22.45;16.15;;;13.10;99.90;;;;;;5015099;28;20033;-86
2021/08/11 00:23:55;;;;;;;24.75;15.93;;;13.20;99.90;;;;;;5014842;28;20026;-86
2021/08/11 00:26:20;;;;;;;25.05;15.70;;;13.20;99.90;;;;;;5016756;28;20127;-87
2021/08/11 00:28:46;;;;;;;13.07;10.57;;;13.20;99.90;;;;;;5014261;28;20021;-87
2021/08/11 00:31:11;;;;;;;17.15;11.90;;;13.10;99.90;;;;;;5009016;28;20382;-87
2021/08/11 00:33:37;;;;;;;19.63;13.15;;;13.10;99.90;;;;;;5016344;28;20404;-86
2021/08/11 00:36:02;;;;;;;14.70;12.27;;;13.00;99.90;;;;;;5015126;28;20569;-87
2021/08/11 00:38:28;;;;;;;17.90;13.70;;;13.00;99.90;;;;;;5011825;28;20040;-87
2021/08/11 00:40:53;;;;;;;15.45;11.68;;;13.00;99.90;;;;;;5000434;28;20018;-87
2021/08/11 00:43:19;;;;;;;19.73;15.70;;;13.00;99.90;;;;;;5003435;28;20038;-87
2021/08/11 00:45:44;;;;;;;28.15;17.25;;;13.00;99.90;;;;;;5015906;28;20026;-88
2021/08/11 00:48:10;;;;;;;19.58;15.45;;;13.00;99.90;;;;;;5016364;28;20037;-86
2021/08/11 00:50:40;;;;;;;26.20;18.17;;;13.00;99.90;;;;;;5012896;28;20101;-87
2021/08/11 00:53:08;;;;;;;30.05;21.02;;;13.10;99.90;;;;;;5016904;28;20112;-87
2021/08/11 00:55:36;;;;;;;26.52;19.73;;;13.00;99.90;;;;;;5015826;28;20397;-87
2021/08/11 00:58:04;;;;;;;30.42;21.13;;;13.10;99.90;;;;;;5016783;28;20164;-87
2021/08/11 01:00:31;;;;;;;17.02;13.13;;;13.10;99.90;;;;;;5004274;28;20045;-88
2021/08/11 01:02:57;;;;;;;22.50;14.75;;;13.10;99.90;;;;;;5012595;28;20026;-88
2021/08/11 01:05:25;;;;;;;22.45;15.90;;;13.00;99.90;;;;;;5005481;28;20062;-88
2021/08/11 01:07:51;;;;;;;28.30;19.58;;;13.00;99.90;;;;;;5010713;28;20026;-88
2021/08/11 01:10:17;;;;;;;29.75;20.30;;;13.00;99.90;;;;;;5013505;28;20033;-89
2021/08/11 01:12:43;;;;;;;23.70;17.60;;;13.00;99.90;;;;;;5011144;28;20134;-88
2021/08/11 01:15:09;;;;;;;21.25;15.45;;;13.00;99.90;;;;;;5013129;28;20065;-89
2021/08/11 01:17:35;;;;;;;24.20;16.73;;;13.00;99.90;;;;;;5006832;28;20394;-88
2021/08/11 01:20:03;;;;;;;16.55;12.77;;;12.90;99.90;;;;;;4999129;28;20140;-88
2021/08/11 01:22:43;;;;;;;20.13;13.95;;;12.90;99.90;;;;;;5002454;28;20026;-88
2021/08/11 01:25:26;;;;;;;45.67;13.52;;;12.80;99.90;;;;;;5001421;28;20501;-88
2021/08/11 01:28:36;;;;;;;156.35;15.55;;;12.80;99.90;;;;;;5005561;28;20483;-88
2021/08/11 01:31:11;;;;;;;31.35;12.77;;;12.70;99.90;;;;;;5007424;28;20602;-87
2021/08/11 01:33:48;;;;;;;15.27;11.85;;;12.60;99.90;;;;;;5014789;28;20041;-88
2021/08/11 01:36:46;;;;;;;15.82;11.80;;;12.60;99.90;;;;;;5010676;28;20030;-88
2021/08/11 01:39:35;;;;;;;16.35;12.35;;;12.60;99.90;;;;;;5004748;28;20033;-88
2021/08/11 01:42:15;;;;;;;20.02;13.65;;;12.60;99.90;;;;;;5006562;28;20041;-88
2021/08/11 01:45:01;;;;;;;16.67;12.48;;;12.50;99.90;;;;;;5010421;28;20437;-88
2021/08/11 01:47:36;;;;;;;16.65;11.55;;;12.50;99.90;;;;;;5009575;28;20034;-88
2021/08/11 01:50:02;;;;;;;15.82;11.10;;;12.50;99.90;;;;;;5004788;28;20022;-88
2021/08/11 01:52:28;;;;;;;21.27;14.10;;;12.50;99.90;;;;;;5008671;28;20034;-88
2021/08/11 01:54:53;;;;;;;29.05;16.05;;;12.50;99.90;;;;;;5006844;28;20336;-89
2021/08/11 01:57:19;;;;;;;18.58;13.00;;;12.50;99.90;;;;;;4998841;28;20022;-89
2021/08/11 01:59:47;;;;;;;17.98;12.68;;;12.50;99.90;;;;;;5007672;28;20037;-88
2021/08/11 02:02:14;;;;;;;13.75;10.02;;;12.50;99.90;;;;;;5007661;28;20107;-89
2021/08/11 02:04:40;;;;;;;15.23;10.95;;;12.50;99.90;;;;;;5005391;28;20082;-88
2021/08/11 02:07:05;;;;;;;20.35;12.50;;;12.50;99.90;;;;;;5010026;28;20026;-89
2021/08/11 02:09:31;;;;;;;14.75;9.93;;;12.50;99.90;;;;;;5006099;28;20029;-89
2021/08/11 02:11:58;;;;;;;17.00;9.77;;;12.50;99.90;;;;;;5007995;28;20042;-88
2021/08/11 02:14:24;;;;;;;16.10;11.10;;;12.50;99.90;;;;;;5003170;28;20026;-88
2021/08/11 02:16:50;;;;;;;16.38;11.35;;;12.40;99.90;;;;;;5009344;28;20065;-88
2021/08/11 02:19:15;;;;;;;15.55;10.68;;;12.40;99.90;;;;;;5005211;28;20474;-89
2021/08/11 02:21:41;;;;;;;17.42;12.25;;;12.40;99.90;;;;;;5011209;28;20080;-89
2021/08/11 02:24:09;;;;;;;16.80;12.15;;;12.40;99.90;;;;;;5004319;28;20033;-88
2021/08/11 02:26:46;;;;;;;18.13;11.40;;;12.40;99.90;;;;;;5009807;28;20076;-88
2021/08/11 02:29:17;;;;;;;13.88;10.70;;;12.40;99.90;;;;;;5005152;28;20030;-89
2021/08/11 02:32:11;;;;;;;34.55;12.95;;;12.40;99.90;;;;;;5002329;28;20482;-89
2021/08/11 02:35:20;;;;;;;21.42;12.00;;;12.40;99.90;;;;;;5012356;28;20037;-89
2021/08/11 02:38:00;;;;;;;19.42;10.10;;;12.40;99.90;;;;;;4915334;29;20031;-88
2021/08/11 02:40:39;;;;;;;19.10;12.10;;;12.40;99.90;;;;;;4913127;29;20067;-88
2021/08/11 02:43:20;;;;;;;18.48;12.27;;;12.40;99.90;;;;;;4984922;28;20113;-88
2021/08/11 02:45:50;;;;;;;27.95;12.40;;;12.40;99.90;;;;;;4996451;28;20084;-88
2021/08/11 02:48:16;;;;;;;32.75;12.75;;;12.40;99.90;;;;;;5006350;28;20026;-88
2021/08/11 02:50:43;;;;;;;27.67;13.43;;;12.40;99.90;;;;;;4997162;28;20336;-89
2021/08/11 02:53:13;;;;;;;30.65;14.48;;;12.40;99.90;;;;;;4997846;28;20042;-89
2021/08/11 02:55:39;;;;;;;25.02;11.98;;;12.40;99.90;;;;;;5002832;28;20026;-89
2021/08/11 02:58:08;;;;;;;35.30;11.50;;;12.40;99.90;;;;;;5008150;28;20030;-88
2021/08/11 03:00:34;;;;;;;203.43;22.10;;;12.40;99.90;;;;;;5005983;28;20096;-88
2021/08/11 03:03:00;;;;;;;125.50;15.52;;;12.40;99.90;;;;;;4999171;28;20026;-87
2021/08/11 03:05:26;;;;;;;74.30;14.15;;;12.40;99.90;;;;;;4996775;28;20068;-88
2021/08/11 03:07:51;;;;;;;83.90;13.57;;;12.40;99.90;;;;;;5002695;28;20026;-88
2021/08/11 03:10:17;;;;;;;105.88;15.77;;;12.40;99.90;;;;;;5003675;28;20375;-88
2021/08/11 03:12:46;;;;;;;78.60;15.70;;;12.40;99.90;;;;;;5001052;28;20125;-87
2021/08/11 03:15:12;;;;;;;56.03;14.43;;;12.40;99.90;;;;;;5010279;28;20105;-88
2021/08/11 03:17:38;;;;;;;135.02;21.02;;;12.50;99.90;;;;;;5008779;28;20118;-88
2021/08/11 03:20:05;;;;;;;51.30;17.02;;;12.50;99.90;;;;;;5007096;28;20549;-88
2021/08/11 03:22:31;;;;;;;29.02;15.80;;;12.50;99.90;;;;;;5011923;28;20022;-87
2021/08/11 03:24:56;;;;;;;49.42;16.25;;;12.50;99.90;;;;;;5012404;28;20030;-87
2021/08/11 03:27:22;;;;;;;108.68;19.42;;;12.50;99.90;;;;;;5002478;28;20081;-88
2021/08/11 03:29:47;;;;;;;134.13;22.77;;;12.50;99.90;;;;;;5007380;28;20414;-88
2021/08/11 03:32:13;;;;;;;94.75;20.75;;;12.50;99.90;;;;;;5007325;28;20062;-88
2021/08/11 03:34:39;;;;;;;56.13;19.50;;;12.50;99.90;;;;;;5003083;28;20029;-87
2021/08/11 03:37:05;;;;;;;65.63;20.38;;;12.50;99.90;;;;;;5001281;28;20116;-88
2021/08/11 03:39:31;;;;;;;40.78;18.92;;;12.50;99.90;;;;;;5006443;28;20053;-88
2021/08/11 03:41:57;;;;;;;32.40;19.17;;;12.50;99.90;;;;;;5010335;28;20426;-88
2021/08/11 03:44:22;;;;;;;38.20;19.42;;;12.50;99.90;;;;;;5010777;28;20030;-88
2021/08/11 03:46:48;;;;;;;32.42;18.33;;;12.50;99.90;;;;;;5007467;28;20026;-88
2021/08/11 03:49:13;;;;;;;41.67;19.00;;;12.50;99.90;;;;;;5007085;28;20030;-88
2021/08/11 03:51:39;;;;;;;60.55;18.83;;;12.40;99.90;;;;;;5013179;28;20169;-88
2021/08/11 03:54:04;;;;;;;68.20;18.95;;;12.40;99.90;;;;;;5014574;28;20045;-88
2021/08/11 03:56:30;;;;;;;61.92;20.17;;;12.40;99.90;;;;;;5006713;28;20042;-88
2021/08/11 03:58:55;;;;;;;68.97;19.42;;;12.40;99.90;;;;;;5007667;28;20033;-88
2021/08/11 04:01:21;;;;;;;119.80;24.33;;;12.40;99.90;;;;;;5008078;28;20112;-88
2021/08/11 04:03:47;;;;;;;82.78;21.35;;;12.40;99.90;;;;;;5012625;28;20129;-87
2021/08/11 04:06:13;;;;;;;75.80;20.10;;;12.40;99.90;;;;;;5013382;28;20061;-88
2021/08/11 04:08:39;;;;;;;70.15;20.85;;;12.40;99.90;;;;;;5008772;28;20076;-87
2021/08/11 04:11:04;;;;;;;79.20;20.23;;;12.50;99.90;;;;;;5008769;28;20030;-88
2021/08/11 04:13:30;;;;;;;67.05;18.95;;;12.50;99.90;;;;;;5012706;28;20478;-88
2021/08/11 04:15:55;;;;;;;82.97;20.00;;;12.50;99.90;;;;;;5010496;28;20027;-88
2021/08/11 04:18:21;;;;;;;129.65;21.30;;;12.50;99.90;;;;;;5008308;28;20022;-88
2021/08/11 04:20:46;;;;;;;62.03;18.83;;;12.50;99.90;;;;;;5011634;28;20034;-88
2021/08/11 04:23:12;;;;;;;48.05;18.23;;;12.50;99.90;;;;;;5012807;28;20382;-89
2021/08/11 04:25:40;;;;;;;91.40;20.75;;;12.50;99.90;;;;;;5007031;28;20444;-89
2021/08/11 04:28:07;;;;;;;41.15;17.63;;;12.40;99.90;;;;;;5013096;28;20030;-88
2021/08/11 04:30:33;;;;;;;46.03;17.55;;;12.50;99.90;;;;;;5006784;28;20031;-88
2021/08/11 04:32:59;;;;;;;79.38;19.20;;;12.50;99.90;;;;;;5011576;28;20040;-88
2021/08/11 04:35:24;;;;;;;83.15;18.02;;;12.50;99.90;;;;;;5010703;28;20025;-88
2021/08/11 04:37:50;;;;;;;58.22;17.92;;;12.60;99.90;;;;;;5018971;28;20486;-88
2021/08/11 04:40:15;;;;;;;75.72;18.60;;;12.50;99.90;;;;;;5014038;28;20057;-88
2021/08/11 04:42:41;;;;;;;89.50;17.38;;;12.60;99.90;;;;;;5014231;28;20036;-88
2021/08/11 04:45:07;;;;;;;52.70;15.52;;;12.60;99.90;;;;;;5013796;28;20022;-88
2021/08/11 04:47:33;;;;;;;88.18;18.88;;;12.70;99.90;;;;;;5007929;28;20038;-88
2021/08/11 04:49:59;;;;;;;116.10;20.17;;;12.70;99.90;;;;;;5000960;28;20028;-87
2021/08/11 04:52:24;;;;;;;117.72;20.45;;;12.80;99.90;;;;;;5014276;28;20076;-88
2021/08/11 04:54:50;;;;;;;114.60;20.70;;;12.80;99.90;;;;;;5010065;28;20436;-88
2021/08/11 04:57:15;;;;;;;89.30;19.50;;;12.80;99.90;;;;;;5008023;28;20083;-91
2021/08/11 04:59:41;;;;;;;71.82;16.83;;;12.90;99.90;;;;;;4999448;28;20021;-88
2021/08/11 05:02:06;;;;;;;86.00;19.30;;;12.90;99.90;;;;;;5005201;28;20038;-88
2021/08/11 05:04:32;;;;;;;95.55;20.02;;;12.90;99.90;;;;;;5000983;28;20529;-88
2021/08/11 05:06:57;;;;;;;119.65;21.63;;;13.00;99.90;;;;;;5004406;28;20029;-88
2021/08/11 05:09:23;;;;;;;66.43;17.08;;;13.00;99.90;;;;;;5013256;28;20040;-87
2021/08/11 05:11:49;;;;;;;69.47;17.65;;;13.00;99.90;;;;;;5008945;28;20136;-88
2021/08/11 05:14:14;;;;;;;45.40;16.35;;;13.00;99.90;;;;;;5007441;28;20057;-88
2021/08/11 05:16:40;;;;;;;57.40;17.90;;;13.10;99.90;;;;;;5011340;28;20053;-88
2021/08/11 05:19:05;;;;;;;70.65;17.48;;;13.20;99.90;;;;;;5010659;28;20029;-87
2021/08/11 05:21:32;;;;;;;52.80;19.55;;;13.20;99.90;;;;;;5009842;28;20044;-87
2021/08/11 05:23:58;;;;;;;29.25;15.98;;;13.20;99.90;;;;;;5004268;28;20045;-87
2021/08/11 05:26:23;;;;;;;25.17;16.33;;;13.30;99.90;;;;;;5008912;28;20416;-87
2021/08/11 05:28:49;;;;;;;24.33;16.52;;;13.30;99.90;;;;;;5010518;28;20033;-90
2021/08/11 05:31:16;;;;;;;26.55;17.38;;;13.30;99.90;;;;;;5010019;28;20058;-87
2021/08/11 05:33:42;;;;;;;25.42;16.85;;;13.40;99.90;;;;;;5008969;28;21048;-87
2021/08/11 05:36:08;;;;;;;22.45;16.73;;;13.50;99.90;;;;;;5007299;28;20030;-88
2021/08/11 05:38:36;;;;;;;26.52;18.63;;;13.50;99.90;;;;;;5005743;28;20031;-88
2021/08/11 05:41:01;;;;;;;28.23;18.33;;;13.60;99.90;;;;;;5005872;28;20546;-87
2021/08/11 05:43:27;;;;;;;21.38;16.60;;;13.70;99.90;;;;;;5001708;28;20069;-87
2021/08/11 05:45:52;;;;;;;22.67;17.10;;;13.70;99.90;;;;;;5008446;28;20167;-87
2021/08/11 05:48:24;;;;;;;22.33;16.55;;;13.90;99.90;;;;;;5014487;28;20022;-87
2021/08/11 05:50:49;;;;;;;21.42;15.80;;;14.20;99.90;;;;;;5011320;28;20052;-87
2021/08/11 05:53:16;;;;;;;21.20;16.52;;;14.30;99.90;;;;;;5017937;28;20137;-88
2021/08/11 05:55:42;;;;;;;22.83;16.95;;;14.40;99.90;;;;;;5000584;28;20090;-89
2021/08/11 05:58:11;;;;;;;23.95;17.00;;;14.60;99.90;;;;;;5013856;28;20022;-88
2021/08/11 06:00:37;;;;;;;25.02;17.85;;;14.70;99.90;;;;;;5013605;28;20028;-88
2021/08/11 06:03:03;;;;;;;22.73;17.60;;;14.90;99.90;;;;;;5014757;28;20034;-88
2021/08/11 06:05:29;;;;;;;23.60;19.50;;;15.00;99.90;;;;;;5014636;28;20052;-88
2021/08/11 06:07:54;;;;;;;25.17;18.52;;;15.20;99.90;;;;;;5013550;28;20117;-88
2021/08/11 06:10:20;;;;;;;24.15;19.27;;;15.30;99.90;;;;;;5014731;28;20057;-89
2021/08/11 06:12:47;;;;;;;26.65;18.98;;;15.50;99.90;;;;;;4998160;28;20552;-88
2021/08/11 06:15:13;;;;;;;21.30;17.13;;;15.60;99.90;;;;;;5010306;28;20042;-88
2021/08/11 06:17:45;;;;;;;22.85;18.27;;;15.80;99.90;;;;;;5011843;28;20577;-87
2021/08/11 06:20:12;;;;;;;20.95;16.25;;;16.00;99.90;;;;;;5014670;28;20018;-88
2021/08/11 06:22:38;;;;;;;21.77;15.75;;;16.10;99.90;;;;;;5005523;28;20040;-87
2021/08/11 06:25:05;;;;;;;24.83;17.13;;;16.20;99.90;;;;;;5010255;28;20417;-88
2021/08/11 06:27:31;;;;;;;21.80;16.13;;;16.30;99.90;;;;;;5013108;28;20101;-87
2021/08/11 06:29:57;;;;;;;20.33;16.27;;;16.30;99.90;;;;;;5003481;28;20064;-88
2021/08/11 06:32:22;;;;;;;18.73;15.05;;;16.30;99.90;;;;;;5011682;28;20064;-87
2021/08/11 06:34:48;;;;;;;19.13;14.90;;;16.30;99.90;;;;;;5012728;28;20042;-88
2021/08/11 06:37:13;;;;;;;20.73;15.85;;;16.40;99.90;;;;;;5015487;28;20038;-88
2021/08/11 06:39:39;;;;;;;22.73;16.08;;;16.40;99.90;;;;;;5011879;28;20013;-88
2021/08/11 06:42:04;;;;;;;17.52;14.45;;;16.50;99.90;;;;;;5005720;28;20116;-88
2021/08/11 06:44:30;;;;;;;20.30;13.98;;;16.50;99.90;;;;;;5012346;28;20030;-88
2021/08/11 06:46:55;;;;;;;17.52;14.85;;;16.60;99.90;;;;;;5011522;28;20022;-88
2021/08/11 06:49:21;;;;;;;18.63;14.07;;;16.60;99.90;;;;;;5010361;28;20039;-88
2021/08/11 06:51:46;;;;;;;19.15;14.45;;;16.70;99.90;;;;;;5009140;28;20022;-87
2021/08/11 06:54:12;;;;;;;20.02;14.90;;;16.70;99.90;;;;;;5014847;28;20042;-87
2021/08/11 06:56:39;;;;;;;16.92;13.93;;;16.80;99.90;;;;;;5012435;28;20025;-87
2021/08/11 06:59:05;;;;;;;16.48;14.23;;;16.80;99.90;;;;;;5012912;28;20035;-87
2021/08/11 07:01:31;;;;;;;18.23;15.30;;;16.90;99.90;;;;;;5008254;28;20117;-86
2021/08/11 07:03:56;;;;;;;19.17;15.65;;;17.00;99.90;;;;;;5010939;28;20057;-86
2021/08/11 07:06:22;;;;;;;20.15;15.20;;;17.10;99.90;;;;;;5007699;28;20049;-86
2021/08/11 07:08:47;;;;;;;20.20;16.58;;;17.20;99.90;;;;;;5010943;28;20026;-87
2021/08/11 07:11:13;;;;;;;20.17;15.13;;;17.30;99.90;;;;;;5010857;28;20038;-89
2021/08/11 07:13:38;;;;;;;18.67;15.20;;;17.40;99.90;;;;;;5012162;28;20478;-87
2021/08/11 07:16:04;;;;;;;25.55;16.27;;;17.40;99.90;;;;;;5007693;28;20656;-87
2021/08/11 07:18:29;;;;;;;21.42;15.63;;;17.50;99.90;;;;;;5011671;28;20536;-87
2021/08/11 07:20:55;;;;;;;20.40;16.88;;;17.70;99.90;;;;;;5007022;28;20030;-88
2021/08/11 07:23:21;;;;;;;19.45;15.57;;;17.80;99.90;;;;;;5012435;28;20080;-87
2021/08/11 07:25:46;;;;;;;18.67;15.32;;;17.90;99.90;;;;;;5016051;28;20025;-86
2021/08/11 07:28:12;;;;;;;20.50;15.50;;;18.00;99.90;;;;;;5012276;28;20038;-87
2021/08/11 07:30:38;;;;;;;19.25;14.82;;;18.10;99.90;;;;;;5016248;28;20050;-88
2021/08/11 07:33:07;;;;;;;24.88;15.50;;;18.20;99.90;;;;;;5001237;28;20081;-87
2021/08/11 07:35:34;;;;;;;17.33;13.48;;;18.40;99.90;;;;;;5013199;28;20037;-87
2021/08/11 07:38:01;;;;;;;18.40;13.70;;;18.50;99.90;;;;;;5015891;28;20442;-87
2021/08/11 07:40:27;;;;;;;16.60;13.02;;;18.60;99.90;;;;;;5014669;28;20041;-88
2021/08/11 07:42:54;;;;;;;14.25;12.10;;;18.70;99.90;;;;;;5014077;28;20034;-87
2021/08/11 07:45:20;;;;;;;20.58;13.50;;;18.80;99.90;;;;;;5017490;28;20022;-87
2021/08/11 07:47:48;;;;;;;17.25;12.05;;;18.90;99.90;;;;;;5016061;28;20026;-88
2021/08/11 07:50:15;;;;;;;18.40;13.00;;;18.90;99.90;;;;;;5014763;28;20054;-88
2021/08/11 07:52:41;;;;;;;16.00;12.75;;;19.00;99.90;;;;;;5008903;28;20065;-87
2021/08/11 07:55:07;;;;;;;16.42;13.57;;;19.00;99.90;;;;;;5014394;28;20034;-87
2021/08/11 07:57:33;;;;;;;19.58;13.45;;;18.90;99.70;;;;;;5008887;28;20034;-87
2021/08/11 07:59:59;;;;;;;20.45;14.68;;;18.90;99.90;;;;;;5016249;28;20022;-87
2021/08/11 08:02:25;;;;;;;19.60;13.45;;;18.90;99.70;;;;;;5002257;28;20034;-87
2021/08/11 08:04:50;;;;;;;18.38;13.38;;;19.00;99.70;;;;;;5016996;28;20112;-86
2021/08/11 08:07:16;;;;;;;22.45;15.77;;;19.20;99.90;;;;;;5010937;28;20572;-85
2021/08/11 08:09:42;;;;;;;21.10;15.52;;;19.30;99.30;;;;;;5007310;28;20374;-86
2021/08/11 08:12:08;;;;;;;22.33;15.93;;;19.40;99.10;;;;;;5014909;28;20081;-86
2021/08/11 08:14:33;;;;;;;20.88;16.25;;;19.50;98.90;;;;;;5015719;28;20053;-87
2021/08/11 08:16:59;;;;;;;20.77;15.93;;;19.70;99.00;;;;;;5012895;28;20032;-87
2021/08/11 08:19:24;;;;;;;20.90;16.35;;;19.80;98.60;;;;;;5015650;28;20018;-87
2021/08/11 08:21:50;;;;;;;21.10;15.77;;;19.90;98.40;;;;;;5016520;28;20470;-88
2021/08/11 08:24:16;;;;;;;22.27;15.48;;;20.10;98.30;;;;;;5015775;28;20121;-88
2021/08/11 08:26:42;;;;;;;21.90;16.95;;;20.20;97.90;;;;;;5015968;28;20030;-85
2021/08/11 08:29:08;;;;;;;21.52;15.75;;;20.40;97.60;;;;;;5013618;28;20037;-85
2021/08/11 08:31:34;;;;;;;23.63;17.33;;;20.60;97.10;;;;;;5012583;28;20391;-87
2021/08/11 08:33:59;;;;;;;18.98;14.93;;;20.70;97.00;;;;;;5015423;28;20053;-87
2021/08/11 08:36:25;;;;;;;21.77;16.15;;;20.90;96.70;;;;;;5011406;28;20110;-87
2021/08/11 08:38:50;;;;;;;19.42;15.43;;;21.00;96.30;;;;;;5015449;28;20045;-87
2021/08/11 08:41:17;;;;;;;23.48;16.10;;;21.10;96.30;;;;;;5013220;28;20096;-87
2021/08/11 08:43:43;;;;;;;21.00;15.05;;;21.20;96.10;;;;;;5014180;28;20034;-87
2021/08/11 08:46:09;;;;;;;18.98;15.00;;;21.40;95.60;;;;;;5001185;28;20033;-87
2021/08/11 08:48:39;;;;;;;19.23;14.77;;;21.50;95.30;;;;;;5013544;28;20048;-87
2021/08/11 08:51:08;;;;;;;20.60;15.65;;;21.60;95.20;;;;;;5016931;28;20029;-87
2021/08/11 08:53:34;;;;;;;21.10;16.23;;;21.70;95.00;;;;;;5015834;28;20120;-88
2021/08/11 08:56:00;;;;;;;21.45;16.25;;;21.80;94.90;;;;;;5014271;28;20036;-86
2021/08/11 08:58:26;;;;;;;20.38;15.95;;;21.80;94.50;;;;;;5006045;28;20026;-87
2021/08/11 09:00:52;;;;;;;18.80;14.50;;;21.80;94.50;;;;;;4998969;28;20021;-86
2021/08/11 09:03:17;;;;;;;19.85;15.15;;;21.80;94.50;;;;;;5001004;28;20394;-87
2021/08/11 09:05:43;;;;;;;20.90;14.95;;;21.80;94.50;;;;;;4995613;28;20054;-87
2021/08/11 09:08:09;;;;;;;20.08;15.10;;;21.80;94.20;;;;;;5012239;28;20107;-87
2021/08/11 09:10:39;;;;;;;19.40;13.55;;;21.80;94.10;;;;;;5013477;28;20026;-87
2021/08/11 09:13:13;;;;;;;17.67;13.60;;;21.90;93.90;;;;;;5012791;28;20121;-87
2021/08/11 09:15:42;;;;;;;19.25;13.80;;;21.90;93.50;;;;;;5013556;28;20076;-87
2021/08/11 09:18:13;;;;;;;18.25;14.50;;;22.00;93.50;;;;;;5012401;28;20025;-87
2021/08/11 09:20:39;;;;;;;18.70;13.53;;;22.00;93.30;;;;;;5014678;28;20058;-87
2021/08/11 09:23:05;;;;;;;15.88;11.88;;;21.90;93.20;;;;;;4995736;28;20053;-87
2021/08/11 09:25:31;;;;;;;17.77;13.90;;;21.90;93.20;;;;;;5005651;28;20482;-88
2021/08/11 09:27:56;;;;;;;19.92;15.18;;;21.90;93.10;;;;;;5002389;28;20037;-87
2021/08/11 09:30:24;;;;;;;17.65;13.07;;;21.90;93.10;;;;;;5009362;28;20061;-87
2021/08/11 09:32:51;;;;;;;19.40;14.50;;;22.00;93.00;;;;;;5011982;28;20041;-87
2021/08/11 09:35:22;;;;;;;19.38;15.13;;;22.10;92.50;;;;;;5014401;28;20033;-88
2021/08/11 09:37:49;;;;;;;18.40;13.97;;;22.10;92.50;;;;;;5015694;28;20418;-88
2021/08/11 09:40:21;;;;;;;19.15;14.98;;;22.20;92.50;;;;;;5004586;28;20464;-87
2021/08/11 09:42:47;;;;;;;17.85;14.80;;;22.30;92.40;;;;;;5006008;28;20026;-89
2021/08/11 09:45:14;;;;;;;17.20;12.65;;;22.30;92.30;;;;;;5009871;28;20034;-88
2021/08/11 09:47:57;;;;;;;14.20;11.05;;;22.40;91.90;;;;;;5011187;28;20049;-88
2021/08/11 09:50:39;;;;;;;15.27;10.68;;;22.50;91.30;;;;;;5011590;28;20496;-87
2021/08/11 09:53:06;;;;;;;14.95;10.68;;;22.40;90.90;;;;;;5011582;28;20041;-87
2021/08/11 09:55:55;;;;;;;15.88;11.20;;;22.20;91.00;;;;;;5010699;28;20083;-88
2021/08/11 09:58:20;;;;;;;14.63;11.43;;;22.10;91.30;;;;;;5007213;28;20026;-87
2021/08/11 10:00:46;;;;;;;14.30;10.15;;;22.10;91.30;;;;;;5013705;28;20083;-87
2021/08/11 10:03:11;;;;;;;13.18;10.18;;;21.90;91.20;;;;;;5012706;28;20095;-88
2021/08/11 10:05:38;;;;;;;13.88;10.32;;;21.80;91.20;;;;;;4971492;28;1217449;-89
2021/08/11 10:08:05;;;;;;;12.80;8.27;;;21.70;91.20;;;;;;5010490;28;20124;-88
2021/08/11 10:10:57;;;;;;;12.05;8.75;;;21.50;91.00;;;;;;5012001;28;20397;-87
2021/08/11 10:13:24;;;;;;;12.15;9.80;;;21.50;91.20;;;;;;5008966;28;20071;-87
2021/08/11 10:15:53;;;;;;;12.88;9.40;;;21.40;91.30;;;;;;5012489;28;20033;-86
2021/08/11 10:18:24;;;;;;;11.90;10.15;;;21.70;91.60;;;;;;5007302;28;20072;-87
2021/08/11 10:20:59;;;;;;;11.23;10.05;;;22.00;91.40;;;;;;5002517;28;20490;-87
2021/08/11 10:23:25;;;;;;;11.70;9.30;;;22.30;91.30;;;;;;5012399;28;20026;-87
2021/08/11 10:25:51;;;;;;;10.77;9.43;;;22.40;90.80;;;;;;5013115;28;20030;-87
2021/08/11 10:28:22;;;;;;;12.13;10.32;;;22.70;90.60;;;;;;5014881;28;20057;-86
2021/08/11 10:30:49;;;;;;;10.60;9.38;;;23.00;90.30;;;;;;5013617;28;20029;-86
2021/08/11 10:33:16;;;;;;;11.82;9.30;;;23.20;90.00;;;;;;5013519;28;20069;-87
2021/08/11 10:35:44;;;;;;;11.20;9.43;;;23.40;88.50;;;;;;4995005;28;20049;-87
2021/08/11 10:38:10;;;;;;;9.75;8.73;;;23.50;87.60;;;;;;5008758;28;20029;-87
2021/08/11 10:40:38;;;;;;;8.77;7.63;;;23.50;86.70;;;;;;5013263;28;20612;-87
2021/08/11 10:43:04;;;;;;;7.80;6.35;;;23.40;86.30;;;;;;5007568;28;20433;-87
2021/08/11 10:45:30;;;;;;;7.05;5.28;;;23.30;86.00;;;;;;5012962;28;20022;-87
2021/08/11 10:47:56;;;;;;;4.57;3.28;;;23.20;85.30;;;;;;5010576;28;20113;-88
2021/08/11 10:50:21;;;;;;;5.20;3.28;;;23.00;84.10;;;;;;5012027;28;20528;-88
2021/08/11 10:53:06;;;;;;;4.07;2.53;;;22.90;84.70;;;;;;5007529;28;20128;-87
2021/08/11 10:55:52;;;;;;;6.95;3.20;;;23.00;85.00;;;;;;5009955;28;20022;-86
2021/08/11 10:58:36;;;;;;;4.75;4.05;;;23.10;84.20;;;;;;5000662;28;20037;-87
2021/08/11 11:01:04;;;;;;;4.90;3.20;;;23.20;83.50;;;;;;4997375;28;20117;-87
2021/08/11 11:03:50;;;;;;;4.75;3.30;;;23.30;82.00;;;;;;5009105;28;20129;-87
2021/08/11 11:06:16;;;;;;;4.63;2.58;;;23.50;82.80;;;;;;5012016;28;20068;-87
2021/08/11 11:08:41;;;;;;;5.15;2.97;;;23.60;81.30;;;;;;5013217;28;20037;-87
2021/08/11 11:11:32;;;;;;;4.38;3.05;;;23.70;80.70;;;;;;5015805;28;20406;-87
2021/08/11 11:13:57;;;;;;;5.78;2.75;;;23.80;79.90;;;;;;5000873;28;20029;-87
2021/08/11 11:16:59;;;;;;;2.85;2.17;;;23.70;78.40;;;;;;5022583;28;20037;-87
2021/08/11 11:19:25;;;;;;;3.72;2.25;;;23.50;77.80;;;;;;5014058;28;20109;-87
2021/08/11 11:21:50;;;;;;;4.43;1.88;;;23.40;79.20;;;;;;5013579;28;20064;-86
2021/08/11 11:24:49;;;;;;;6.00;3.05;;;23.50;78.80;;;;;;5011808;28;20030;-86
2021/08/11 11:28:04;;;;;;;3.28;1.90;;;23.60;77.30;;;;;;5004852;28;20025;-87
2021/08/11 11:30:28;;;;;;;4.68;2.25;;;23.80;77.40;;;;;;5001397;28;20117;-88
2021/08/11 11:33:31;;;;;;;3.58;1.95;;;23.90;75.50;;;;;;5011653;28;20084;-87
2021/08/11 11:36:22;;;;;;;4.45;1.92;;;24.20;74.90;;;;;;4935061;29;20031;-87
2021/08/11 11:39:06;;;;;;;5.72;2.58;;;24.40;74.10;;;;;;5001403;28;20041;-88
2021/08/11 11:41:36;;;;;;;3.25;2.30;;;24.60;73.80;;;;;;5013135;28;20446;-87
2021/08/11 11:44:39;;;;;;;3.53;2.10;;;24.80;73.00;;;;;;5007114;28;20557;-87
2021/08/11 11:47:05;;;;;;;3.15;1.92;;;25.00;72.10;;;;;;5001352;28;20432;-87
2021/08/11 11:49:30;;;;;;;4.80;1.85;;;25.20;70.50;;;;;;4993227;28;20113;-87
2021/08/11 11:51:56;;;;;;;4.57;2.40;;;25.30;69.10;;;;;;5007452;28;20117;-88
2021/08/11 11:54:23;;;;;;;3.38;2.00;;;25.30;68.70;;;;;;5011782;28;20030;-88
2021/08/11 11:56:49;;;;;;;3.60;2.35;;;25.30;67.60;;;;;;5011586;28;20500;-86
2021/08/11 11:59:15;;;;;;;3.25;2.15;;;25.30;67.10;;;;;;5007575;28;20026;-86
2021/08/11 12:01:41;;;;;;;3.78;2.10;;;25.20;66.40;;;;;;5012871;28;20030;-87
2021/08/11 12:04:09;;;;;;;3.60;2.20;;;25.30;65.80;;;;;;5012518;28;20022;-83
2021/08/11 12:06:44;;;;;;;3.15;1.80;;;25.30;64.60;;;;;;5004983;28;20049;-85
2021/08/11 12:09:10;;;;;;;4.07;2.20;;;25.50;64.50;;;;;;5007138;28;20574;-86
2021/08/11 12:11:35;;;;;;;3.53;1.90;;;25.50;63.70;;;;;;5009846;28;20121;-86
2021/08/11 12:14:02;;;;;;;3.72;1.80;;;25.40;63.50;;;;;;5010406;28;20029;-86
2021/08/11 12:16:39;;;;;;;3.42;1.67;;;25.30;63.60;;;;;;5012908;28;20494;-87
2021/08/11 12:19:16;;;;;;;5.60;1.65;;;25.20;63.10;;;;;;5004585;28;20406;-88
2021/08/11 12:21:43;;;;;;;3.45;1.35;;;25.20;63.50;;;;;;5013198;28;20072;-87
2021/08/11 12:24:09;;;;;;;3.45;1.58;;;25.20;63.30;;;;;;5010790;28;20022;-87
2021/08/11 12:26:37;;;;;;;3.60;1.98;;;25.20;64.00;;;;;;5005861;28;20026;-88
2021/08/11 12:29:17;;;;;;;3.20;1.27;;;25.30;63.10;;;;;;5007950;28;20121;-86
2021/08/11 12:31:43;;;;;;;4.03;1.35;;;25.30;63.20;;;;;;5015222;28;20460;-87
2021/08/11 12:34:10;;;;;;;3.30;1.40;;;25.10;62.80;;;;;;5015069;28;20029;-88
2021/08/11 12:36:38;;;;;;;3.75;1.55;;;25.00;62.70;;;;;;5014576;28;20105;-86
2021/08/11 12:39:05;;;;;;;3.20;1.48;;;24.70;62.90;;;;;;5015184;28;20048;-88